CYPA

Prince Albert Glass Field Airport

Prince Albert, Saskatchewan, Canada
METAR CYPA 191240Z 24003KT 3/4SM R08/P6000FT/D BR FEW002 BKN100 M03/M03 A3020 RMK ST2AC4 SLP248
Observed Flight Rules
Sep-19 @ 12:40 UTC (15 minutes ago) Instrument Flight Rules
Wind Visibility Clouds Conditions
240° at 3 knots 3/4 miles
  • Few at 200' AGL
  • Broken at 10,000' AGL
  • Mist
Temperatures Readings
Current -3°C / 27°F
Dewpoint -3°C / 27°F
Humidity 100%
Altimeter 30.2" Hg
Pressure 1024.8 hPa
Elevation 428
METAR CYPA 191240Z 24003KT 3/4SM R08/P6000FT/D BR FEW002 BKN100 M03/M03 A3020 RMK ST2AC4 SLP248
Observed Flight Rules
Sep-19 @ 12:40 UTC
(15 minutes ago)
LIFR
Wind Visibility
240° at 3 knots 3/4 miles
Clouds
  • Few at 200' AGL
  • Broken at 10,000' AGL
Conditions
  • Mist
Temperature Dewpoint
-3°C / 27°F -3°C / 27°F
Humidity Altimeter Pressure
100% 30.2" Hg 1024.8 hPa